createdAt,value
2022-09-05T00:00:05.817Z,1017.1
2022-09-05T00:01:28.010Z,1017.1
2022-09-05T00:02:31.914Z,1017.1
2022-09-05T00:03:36.108Z,1017.1
2022-09-05T00:04:40.034Z,1017.1
2022-09-05T00:06:03.517Z,1017.1
2022-09-05T00:07:07.513Z,1017.1
2022-09-05T00:08:10.607Z,1017.2
2022-09-05T00:09:13.524Z,1017.2
2022-09-05T00:10:46.684Z,1017.1
2022-09-05T00:12:46.900Z,1017.1
2022-09-05T00:14:09.691Z,1017.1
2022-09-05T00:15:19.239Z,1017.1
2022-09-05T00:16:22.325Z,1017.1
2022-09-05T00:23:07.558Z,1017.1
2022-09-05T00:26:36.172Z,1017
2022-09-05T00:27:52.622Z,1017.1
2022-09-05T00:28:55.781Z,1017
2022-09-05T00:31:51.296Z,1017
2022-09-05T00:33:01.250Z,1017
2022-09-05T00:34:20.120Z,1017
2022-09-05T00:35:26.312Z,1017.1
2022-09-05T00:36:29.453Z,1017.1
2022-09-05T00:37:32.242Z,1017.1
2022-09-05T00:38:37.573Z,1017.1
2022-09-05T00:39:50.647Z,1017.1
2022-09-05T00:41:22.488Z,1017.1
2022-09-05T00:42:25.273Z,1017.2
2022-09-05T00:43:28.698Z,1017.2
2022-09-05T00:44:31.287Z,1017.2
2022-09-05T00:45:34.921Z,1017.2
2022-09-05T00:46:37.895Z,1017.2
2022-09-05T00:47:48.449Z,1017.1
2022-09-05T00:48:52.690Z,1017.1
2022-09-05T00:49:55.815Z,1017.2
2022-09-05T00:50:59.000Z,1017.1
2022-09-05T00:52:01.865Z,1017.2
2022-09-05T00:53:08.221Z,1017.2
2022-09-05T00:54:16.186Z,1017.2
2022-09-05T00:55:44.472Z,1017.2
2022-09-05T00:56:51.107Z,1017.2
2022-09-05T00:57:54.182Z,1017.2
2022-09-05T00:58:57.127Z,1017.2
2022-09-05T00:59:59.637Z,1017.2
2022-09-05T01:01:21.538Z,1017.2
2022-09-05T01:02:25.489Z,1017.3
2022-09-05T01:03:29.365Z,1017.3
2022-09-05T01:04:31.958Z,1017.3
2022-09-05T01:05:35.410Z,1017.3
2022-09-05T01:06:37.924Z,1017.3
2022-09-05T01:07:47.095Z,1017.3
2022-09-05T01:08:50.529Z,1017.2
2022-09-05T01:09:52.878Z,1017.3
2022-09-05T01:10:55.479Z,1017.2
2022-09-05T01:11:58.261Z,1017.3
2022-09-05T01:13:01.048Z,1017.3
2022-09-05T01:14:12.823Z,1017.3
2022-09-05T01:15:16.435Z,1017.3
2022-09-05T01:16:19.768Z,1017.3
2022-09-05T01:17:23.346Z,1017.3
2022-09-05T01:18:26.490Z,1017.3
2022-09-05T01:19:29.291Z,1017.3
2022-09-05T01:20:38.328Z,1017.3
2022-09-05T01:21:48.724Z,1017.3
2022-09-05T01:22:51.276Z,1017.3
2022-09-05T01:23:54.148Z,1017.3
2022-09-05T01:24:56.823Z,1017.4
2022-09-05T01:25:59.812Z,1017.3
2022-09-05T01:27:02.690Z,1017.3
2022-09-05T01:29:19.268Z,1017.3
2022-09-05T01:30:33.202Z,1017.3
2022-09-05T01:31:36.361Z,1017.3
2022-09-05T01:32:39.074Z,1017.3
2022-09-05T01:33:41.471Z,1017.3
2022-09-05T01:34:44.536Z,1017.3
2022-09-05T01:36:04.588Z,1017.3
2022-09-05T01:37:07.357Z,1017.3
2022-09-05T01:38:36.287Z,1017.3
2022-09-05T01:40:16.975Z,1017.3
2022-09-05T01:41:20.917Z,1017.3
2022-09-05T01:42:23.669Z,1017.4
2022-09-05T01:43:26.839Z,1017.4
2022-09-05T01:44:30.357Z,1017.4
2022-09-05T01:45:40.501Z,1017.4
2022-09-05T01:46:48.395Z,1017.4
2022-09-05T01:47:52.621Z,1017.4
2022-09-05T01:48:58.748Z,1017.4
2022-09-05T01:50:02.200Z,1017.4
2022-09-05T01:51:31.907Z,1017.5
2022-09-05T01:52:35.265Z,1017.4
2022-09-05T01:54:23.535Z,1017.5
2022-09-05T01:56:02.545Z,1017.4
2022-09-05T01:57:19.886Z,1017.4
2022-09-05T01:58:22.946Z,1017.4
2022-09-05T01:59:25.820Z,1017.5
2022-09-05T02:00:28.445Z,1017.5
2022-09-05T02:01:33.440Z,1017.5
2022-09-05T02:02:37.452Z,1017.5
2022-09-05T02:03:41.534Z,1017.5
2022-09-05T02:04:44.144Z,1017.5
2022-09-05T02:05:49.820Z,1017.5
2022-09-05T02:06:52.314Z,1017.5
2022-09-05T02:07:55.110Z,1017.4
2022-09-05T02:08:57.817Z,1017.5
2022-09-05T02:10:07.859Z,1017.5
2022-09-05T02:11:11.832Z,1017.4
2022-09-05T02:12:15.003Z,1017.4
2022-09-05T02:13:17.790Z,1017.4
2022-09-05T02:14:34.648Z,1017.4
2022-09-05T02:15:38.049Z,1017.4
2022-09-05T02:16:40.924Z,1017.5
2022-09-05T02:17:51.869Z,1017.4
2022-09-05T02:18:54.891Z,1017.5
2022-09-05T02:19:57.751Z,1017.4
2022-09-05T02:21:00.902Z,1017.4
2022-09-05T02:22:03.587Z,1017.4
2022-09-05T02:23:42.422Z,1017.3
2022-09-05T02:24:48.491Z,1017.3
2022-09-05T02:27:05.026Z,1017.3
2022-09-05T02:28:08.175Z,1017.3
2022-09-05T02:29:11.893Z,1017.3
2022-09-05T02:30:32.410Z,1017.3
2022-09-05T02:31:35.331Z,1017.3
2022-09-05T02:32:43.557Z,1017.3
2022-09-05T02:33:46.723Z,1017.3
2022-09-05T02:34:49.851Z,1017.3
2022-09-05T02:35:52.962Z,1017.3
2022-09-05T02:36:56.289Z,1017.4
2022-09-05T02:45:04.438Z,1017.4
2022-09-05T02:46:34.034Z,1017.4
2022-09-05T02:47:37.846Z,1017.3
2022-09-05T02:48:40.359Z,1017.4
2022-09-05T02:57:31.698Z,1017.4
2022-09-05T02:59:15.800Z,1017.4
2022-09-05T03:00:39.271Z,1017.3
2022-09-05T03:01:42.584Z,1017.3
2022-09-05T03:02:45.694Z,1017.4
2022-09-05T03:03:48.199Z,1017.4
2022-09-05T03:04:55.718Z,1017.3
2022-09-05T03:06:08.853Z,1017.3
2022-09-05T03:07:11.644Z,1017.3
2022-09-05T03:08:14.800Z,1017.3
2022-09-05T03:09:18.272Z,1017.3
2022-09-05T03:10:54.998Z,1017.3
2022-09-05T03:12:00.380Z,1017.3
2022-09-05T03:13:32.828Z,1017.2
2022-09-05T03:14:36.048Z,1017.2
2022-09-05T03:15:39.507Z,1017.2
2022-09-05T03:16:48.272Z,1017.2
2022-09-05T03:17:51.084Z,1017.2
2022-09-05T03:18:54.543Z,1017.2
2022-09-05T03:19:57.217Z,1017.2
2022-09-05T03:21:09.936Z,1017.2
2022-09-05T03:22:13.637Z,1017.2
2022-09-05T03:23:16.150Z,1017.2
2022-09-05T03:24:19.414Z,1017.2
2022-09-05T03:25:22.006Z,1017.2
2022-09-05T03:26:25.155Z,1017.2
2022-09-05T03:27:29.856Z,1017.2
2022-09-05T03:28:32.819Z,1017.2
2022-09-05T03:29:35.328Z,1017.2
2022-09-05T03:30:38.420Z,1017.2
2022-09-05T03:31:41.536Z,1017.2
2022-09-05T03:32:44.681Z,1017.2
2022-09-05T03:33:47.761Z,1017.2
2022-09-05T03:34:51.212Z,1017.2
2022-09-05T03:35:54.206Z,1017.2
2022-09-05T03:36:57.067Z,1017.2
2022-09-05T03:38:00.204Z,1017.2
2022-09-05T03:39:03.205Z,1017.2
2022-09-05T03:40:16.947Z,1017.2
2022-09-05T03:41:33.936Z,1017.2
2022-09-05T03:42:45.354Z,1017.2
2022-09-05T03:43:48.070Z,1017.2
2022-09-05T03:44:51.521Z,1017.2
2022-09-05T03:45:54.867Z,1017.2
2022-09-05T03:46:58.389Z,1017.2
2022-09-05T03:48:29.249Z,1017.2
2022-09-05T03:57:31.918Z,1017.3
2022-09-05T03:59:01.097Z,1017.3
2022-09-05T04:00:06.643Z,1017.3
2022-09-05T04:06:53.781Z,1017.2
2022-09-05T04:09:52.458Z,1017.3
2022-09-05T04:10:56.287Z,1017.3
2022-09-05T04:12:03.917Z,1017.3
2022-09-05T04:13:06.153Z,1017.3
2022-09-05T04:14:09.590Z,1017.3
2022-09-05T04:15:12.746Z,1017.3
2022-09-05T04:16:15.937Z,1017.3
2022-09-05T04:17:18.870Z,1017.3
2022-09-05T04:18:34.071Z,1017.3
2022-09-05T04:19:38.705Z,1017.3
2022-09-05T04:20:41.581Z,1017.3
2022-09-05T04:21:44.723Z,1017.3
2022-09-05T04:22:47.596Z,1017.3
2022-09-05T04:23:50.664Z,1017.3
2022-09-05T04:24:53.811Z,1017.3
2022-09-05T04:26:12.440Z,1017.3
2022-09-05T04:27:15.566Z,1017.3
2022-09-05T04:28:18.277Z,1017.3
2022-09-05T04:29:22.012Z,1017.3
2022-09-05T04:30:40.367Z,1017.3
2022-09-05T04:31:43.503Z,1017.3
2022-09-05T04:33:23.440Z,1017.3
2022-09-05T04:34:39.700Z,1017.3
2022-09-05T04:35:42.846Z,1017.3
2022-09-05T04:36:45.982Z,1017.3
2022-09-05T04:37:49.692Z,1017.4
2022-09-05T04:38:52.559Z,1017.4
2022-09-05T04:39:56.183Z,1017.4
2022-09-05T04:40:58.838Z,1017.4
2022-09-05T04:42:01.976Z,1017.4
2022-09-05T04:43:05.129Z,1017.4
2022-09-05T04:44:07.635Z,1017.5
2022-09-05T04:45:10.229Z,1017.5
2022-09-05T04:46:19.421Z,1017.5
2022-09-05T04:47:24.009Z,1017.5
2022-09-05T04:48:30.702Z,1017.5
2022-09-05T04:49:33.529Z,1017.6
2022-09-05T04:50:38.646Z,1017.5
2022-09-05T04:51:44.488Z,1017.5
2022-09-05T04:53:07.246Z,1017.5
2022-09-05T04:54:10.859Z,1017.6
2022-09-05T04:55:13.661Z,1017.6
2022-09-05T04:56:16.822Z,1017.6
2022-09-05T04:57:19.893Z,1017.6
2022-09-05T04:59:18.763Z,1017.5
2022-09-05T05:07:50.512Z,1017.6
2022-09-05T05:08:54.645Z,1017.6
2022-09-05T05:15:29.454Z,1017.6
2022-09-05T05:20:43.872Z,1017.7
2022-09-05T05:21:47.378Z,1017.7
2022-09-05T05:22:50.959Z,1017.7
2022-09-05T05:23:54.411Z,1017.7
2022-09-05T05:24:57.478Z,1017.7
2022-09-05T05:26:00.638Z,1017.7
2022-09-05T05:27:03.770Z,1017.7
2022-09-05T05:28:15.037Z,1017.7
2022-09-05T05:29:29.478Z,1017.7
2022-09-05T05:30:32.276Z,1017.7
2022-09-05T05:31:35.265Z,1017.7
2022-09-05T05:32:46.798Z,1017.8
2022-09-05T05:33:50.123Z,1017.8
2022-09-05T05:34:52.363Z,1017.8
2022-09-05T05:35:55.515Z,1017.8
2022-09-05T05:37:00.968Z,1017.8
2022-09-05T05:38:03.847Z,1017.8
2022-09-05T05:39:07.272Z,1017.8
2022-09-05T05:40:10.037Z,1017.8
2022-09-05T05:41:13.380Z,1017.9
2022-09-05T05:42:21.648Z,1017.8
2022-09-05T05:43:24.288Z,1017.9
2022-09-05T05:44:27.442Z,1017.9
2022-09-05T05:45:30.625Z,1017.9
2022-09-05T05:46:34.139Z,1017.9
2022-09-05T05:47:36.999Z,1017.9
2022-09-05T05:48:42.172Z,1017.9
2022-09-05T05:50:00.350Z,1017.9
2022-09-05T05:51:02.939Z,1017.9
2022-09-05T05:52:05.822Z,1017.9
2022-09-05T05:53:09.161Z,1017.9
2022-09-05T05:55:51.040Z,1017.9
2022-09-05T05:56:56.833Z,1017.9
2022-09-05T05:57:59.823Z,1017.9
2022-09-05T05:59:03.247Z,1017.9
2022-09-05T06:00:06.620Z,1017.9
2022-09-05T06:01:39.015Z,1018
2022-09-05T06:02:42.944Z,1018
2022-09-05T06:03:46.610Z,1018
2022-09-05T06:04:50.735Z,1018
2022-09-05T06:05:55.618Z,1018
2022-09-05T06:06:58.772Z,1018
2022-09-05T06:15:03.171Z,1018
2022-09-05T06:16:29.023Z,1018
2022-09-05T06:17:32.808Z,1018
2022-09-05T06:18:35.596Z,1018
2022-09-05T06:22:13.181Z,1018
2022-09-05T06:23:40.349Z,1018
2022-09-05T06:24:45.111Z,1018.1
2022-09-05T06:25:47.627Z,1018
2022-09-05T06:26:49.954Z,1018.1
2022-09-05T06:28:20.143Z,1018
2022-09-05T06:29:23.318Z,1018
2022-09-05T06:30:41.304Z,1018
2022-09-05T06:31:44.757Z,1018.1
2022-09-05T06:32:58.789Z,1018.1
2022-09-05T06:34:01.674Z,1018
2022-09-05T06:35:04.752Z,1018.1
2022-09-05T06:36:07.589Z,1018.1
2022-09-05T06:37:10.463Z,1018.1
2022-09-05T06:38:14.244Z,1018.1
2022-09-05T06:39:17.094Z,1018.1
2022-09-05T06:40:19.679Z,1018.1
2022-09-05T06:41:23.105Z,1018.1
2022-09-05T06:42:44.261Z,1018.1
2022-09-05T06:43:47.085Z,1018.1
2022-09-05T06:44:50.798Z,1018.1
2022-09-05T06:47:23.157Z,1018.1
2022-09-05T06:49:28.180Z,1018.1
2022-09-05T06:51:09.018Z,1018.1
2022-09-05T06:52:30.344Z,1018.1
2022-09-05T06:53:33.683Z,1018.1
2022-09-05T06:54:41.374Z,1018.1
2022-09-05T06:56:03.340Z,1018.1
2022-09-05T06:57:07.583Z,1018
2022-09-05T06:58:10.447Z,1018.1
2022-09-05T06:59:12.756Z,1018.1
2022-09-05T07:00:22.939Z,1018
2022-09-05T07:01:52.456Z,1018
2022-09-05T07:03:08.502Z,1018.1
2022-09-05T07:05:38.105Z,1018.1
2022-09-05T07:07:06.415Z,1018.1
2022-09-05T07:08:37.118Z,1018.1
2022-09-05T07:09:40.094Z,1018.1
2022-09-05T07:10:43.164Z,1018.1
2022-09-05T07:11:46.244Z,1018.1
2022-09-05T07:12:48.931Z,1018
2022-09-05T07:13:51.726Z,1018.1
2022-09-05T07:14:57.687Z,1018.1
2022-09-05T07:16:12.231Z,1018.1
2022-09-05T07:17:15.463Z,1018.1
2022-09-05T07:18:18.701Z,1018.1
2022-09-05T07:19:22.146Z,1018.1
2022-09-05T07:20:25.318Z,1018.1
2022-09-05T07:21:28.268Z,1018.1
2022-09-05T07:22:49.355Z,1018.1
2022-09-05T07:24:11.083Z,1018.1
2022-09-05T07:25:57.151Z,1018.2
2022-09-05T07:27:02.031Z,1018.1
2022-09-05T07:28:30.706Z,1018.2
2022-09-05T07:29:33.701Z,1018.2
2022-09-05T07:30:36.874Z,1018.1
2022-09-05T07:31:40.050Z,1018.2
2022-09-05T07:32:42.217Z,1018.2
2022-09-05T07:33:44.461Z,1018.2
2022-09-05T07:34:47.337Z,1018.2
2022-09-05T07:35:50.201Z,1018.2
2022-09-05T07:37:16.205Z,1018.2
2022-09-05T07:38:19.145Z,1018.2
2022-09-05T07:39:29.734Z,1018.2
2022-09-05T07:40:32.977Z,1018.2
2022-09-05T07:41:35.766Z,1018.2
2022-09-05T07:42:38.633Z,1018.2
2022-09-05T07:43:41.780Z,1018.2
2022-09-05T07:44:44.401Z,1018.2
2022-09-05T07:45:56.601Z,1018.3
2022-09-05T07:47:00.047Z,1018.2
2022-09-05T07:48:02.931Z,1018.2
2022-09-05T07:49:05.987Z,1018.3
2022-09-05T07:56:57.614Z,1018.3
2022-09-05T07:58:58.101Z,1018.3
2022-09-05T08:00:01.274Z,1018.3
2022-09-05T08:01:04.863Z,1018.3
2022-09-05T08:02:08.217Z,1018.3
2022-09-05T08:03:11.653Z,1018.3
2022-09-05T08:04:14.527Z,1018.3
2022-09-05T08:05:34.726Z,1018.4
2022-09-05T08:07:51.650Z,1018.4
2022-09-05T08:10:05.792Z,1018.4
2022-09-05T08:11:26.479Z,1018.3
2022-09-05T08:13:27.188Z,1018.4
2022-09-05T08:14:46.057Z,1018.4
2022-09-05T08:16:14.192Z,1018.4
2022-09-05T08:17:18.192Z,1018.3
2022-09-05T08:18:21.620Z,1018.3
2022-09-05T08:19:24.482Z,1018.3
2022-09-05T08:20:27.631Z,1018.3
2022-09-05T08:21:30.855Z,1018.2
2022-09-05T08:22:52.405Z,1018.3
2022-09-05T08:23:55.921Z,1018.3
2022-09-05T08:24:59.056Z,1018.4
2022-09-05T08:26:02.225Z,1018.3
2022-09-05T08:27:04.825Z,1018.3
2022-09-05T08:28:19.162Z,1018.3
2022-09-05T08:29:22.748Z,1018.3
2022-09-05T08:30:28.620Z,1018.3
2022-09-05T08:31:31.516Z,1018.3
2022-09-05T08:32:43.643Z,1018.3
2022-09-05T08:33:46.729Z,1018.3
2022-09-05T08:34:49.879Z,1018.3
2022-09-05T08:36:01.682Z,1018.3
2022-09-05T08:37:05.105Z,1018.3
2022-09-05T08:38:09.778Z,1018.2
2022-09-05T08:39:12.961Z,1018.2
2022-09-05T08:40:16.001Z,1018.2
2022-09-05T08:41:43.010Z,1018.2
2022-09-05T08:46:48.978Z,1018.2
2022-09-05T08:47:57.487Z,1018.2
2022-09-05T08:49:15.549Z,1018.2
2022-09-05T08:51:10.324Z,1018.2
2022-09-05T08:52:13.150Z,1018.2
2022-09-05T08:53:47.116Z,1018.2
2022-09-05T08:55:07.358Z,1018.1
2022-09-05T08:56:10.444Z,1018.2
2022-09-05T08:57:22.659Z,1018.2
2022-09-05T08:58:25.449Z,1018.2
2022-09-05T08:59:33.608Z,1018.1
2022-09-05T09:00:38.297Z,1018.1
2022-09-05T09:02:48.228Z,1018.1
2022-09-05T09:03:52.844Z,1018.1
2022-09-05T09:05:03.289Z,1018.1
2022-09-05T09:06:16.098Z,1018.1
2022-09-05T09:07:52.437Z,1018.1
2022-09-05T09:08:58.184Z,1018.1
2022-09-05T09:10:08.590Z,1018.1
2022-09-05T09:11:11.384Z,1018.1
2022-09-05T09:12:14.547Z,1018.1
2022-09-05T09:13:17.985Z,1018.1
2022-09-05T09:14:31.680Z,1018.1
2022-09-05T09:15:34.516Z,1018
2022-09-05T09:16:37.961Z,1018.1
2022-09-05T09:17:40.824Z,1018.1
2022-09-05T09:18:43.620Z,1018
2022-09-05T09:19:46.573Z,1018.1
2022-09-05T09:20:48.885Z,1018.1
2022-09-05T09:21:52.044Z,1018.1
2022-09-05T09:22:54.985Z,1018.1
2022-09-05T09:23:58.410Z,1018.1
2022-09-05T09:25:16.816Z,1018
2022-09-05T09:26:35.736Z,1018.1
2022-09-05T09:28:51.265Z,1018
2022-09-05T09:29:54.707Z,1018
2022-09-05T09:30:58.027Z,1018.1
2022-09-05T09:32:01.495Z,1018
2022-09-05T09:33:04.363Z,1018
2022-09-05T09:34:06.589Z,1018
2022-09-05T09:35:09.785Z,1018
2022-09-05T09:36:12.187Z,1017.9
2022-09-05T09:37:15.302Z,1018
2022-09-05T09:39:39.672Z,1017.8
2022-09-05T09:40:52.279Z,1017.8
2022-09-05T09:42:05.430Z,1017.8
2022-09-05T09:43:07.889Z,1017.8
2022-09-05T09:44:11.612Z,1017.8
2022-09-05T09:45:29.777Z,1017.8
2022-09-05T09:46:32.717Z,1017.7
2022-09-05T09:47:41.892Z,1017.8
2022-09-05T09:48:44.192Z,1017.8
2022-09-05T09:49:47.049Z,1017.8
2022-09-05T09:51:00.556Z,1017.7
2022-09-05T09:52:03.917Z,1017.7
2022-09-05T09:53:06.860Z,1017.7
2022-09-05T09:54:10.000Z,1017.7
2022-09-05T09:55:21.590Z,1017.7
2022-09-05T09:56:31.438Z,1017.7
2022-09-05T09:57:34.327Z,1017.6
2022-09-05T09:58:37.846Z,1017.6
2022-09-05T09:59:55.307Z,1017.6
2022-09-05T10:00:59.018Z,1017.6
2022-09-05T10:03:32.415Z,1017.6
2022-09-05T10:13:09.280Z,1017.5
2022-09-05T10:14:50.203Z,1017.5
2022-09-05T10:15:54.268Z,1017.5
2022-09-05T10:17:01.133Z,1017.5
2022-09-05T10:18:09.224Z,1017.5
2022-09-05T10:19:12.803Z,1017.5
2022-09-05T10:20:16.075Z,1017.5
2022-09-05T10:21:19.025Z,1017.5
2022-09-05T10:22:38.455Z,1017.5
2022-09-05T10:23:45.042Z,1017.4
2022-09-05T10:24:47.899Z,1017.4
2022-09-05T10:25:50.586Z,1017.5
2022-09-05T10:26:53.097Z,1017.5
2022-09-05T10:27:56.391Z,1017.5
2022-09-05T10:29:38.579Z,1017.5
2022-09-05T10:35:05.376Z,1017.4
2022-09-05T10:36:29.959Z,1017.5
2022-09-05T10:37:33.018Z,1017.5
2022-09-05T10:38:37.750Z,1017.5
2022-09-05T10:39:41.189Z,1017.5
2022-09-05T10:41:23.206Z,1017.4
2022-09-05T10:42:26.570Z,1017.4
2022-09-05T10:43:29.436Z,1017.4
2022-09-05T10:44:32.327Z,1017.4
2022-09-05T10:45:39.295Z,1017.4
2022-09-05T10:46:52.398Z,1017.4
2022-09-05T10:48:09.916Z,1017.4
2022-09-05T10:49:17.063Z,1017.4
2022-09-05T10:50:20.517Z,1017.4
2022-09-05T10:51:28.425Z,1017.4
2022-09-05T10:52:31.579Z,1017.3
2022-09-05T10:53:40.229Z,1017.3
2022-09-05T10:54:43.671Z,1017.3
2022-09-05T10:55:52.431Z,1017.3
2022-09-05T10:56:55.053Z,1017.4
2022-09-05T10:57:58.205Z,1017.4
2022-09-05T11:02:33.148Z,1017.4
2022-09-05T11:04:00.399Z,1017.3
2022-09-05T11:05:04.025Z,1017.3
2022-09-05T11:06:09.697Z,1017.3
2022-09-05T11:07:12.236Z,1017.2
2022-09-05T11:08:15.186Z,1017.2
2022-09-05T11:09:18.386Z,1017.2
2022-09-05T11:10:21.263Z,1017.2
2022-09-05T11:11:35.536Z,1017.3
2022-09-05T11:12:38.421Z,1017.3
2022-09-05T11:13:40.956Z,1017.3
2022-09-05T11:14:44.105Z,1017.3
2022-09-05T11:16:06.818Z,1017.3
2022-09-05T11:17:16.704Z,1017.3
2022-09-05T11:18:19.220Z,1017.3
2022-09-05T11:19:58.621Z,1017.3
2022-09-05T11:21:01.789Z,1017.3
2022-09-05T11:22:24.386Z,1017.3
2022-09-05T11:23:27.583Z,1017.3
2022-09-05T11:24:32.838Z,1017.2
2022-09-05T11:25:41.312Z,1017.2
2022-09-05T11:26:51.512Z,1017.2
2022-09-05T11:28:28.808Z,1017.1
2022-09-05T11:29:34.928Z,1017.1
2022-09-05T11:30:39.131Z,1017.2
2022-09-05T11:40:01.057Z,1017.2
2022-09-05T11:42:18.388Z,1017.1
2022-09-05T11:43:21.550Z,1017.1
2022-09-05T11:44:27.035Z,1017.1
2022-09-05T11:45:30.222Z,1017.1
2022-09-05T11:46:33.457Z,1017.1
2022-09-05T11:47:44.899Z,1017.1
2022-09-05T11:48:53.928Z,1017
2022-09-05T11:49:57.696Z,1017.1
2022-09-05T11:51:00.691Z,1017
2022-09-05T11:52:03.838Z,1017.1
2022-09-05T11:53:06.782Z,1017.1
2022-09-05T11:54:09.924Z,1017.1
2022-09-05T11:55:21.826Z,1017
2022-09-05T11:56:29.217Z,1017.1
2022-09-05T11:57:35.545Z,1017.1
2022-09-05T11:58:46.323Z,1017
2022-09-05T12:00:34.110Z,1017.1
2022-09-05T12:01:44.380Z,1017.1
2022-09-05T12:02:52.180Z,1017
2022-09-05T12:04:02.219Z,1017
2022-09-05T12:45:46.550Z,1016.5
2022-09-05T12:46:52.759Z,1016.6
2022-09-05T12:47:57.954Z,1016.6
2022-09-05T12:49:07.707Z,1016.7
2022-09-05T12:50:15.865Z,1016.6
2022-09-05T12:51:47.902Z,1016.5
2022-09-05T12:52:50.994Z,1016.6
2022-09-05T12:53:54.163Z,1016.6
2022-09-05T12:54:57.830Z,1016.6
2022-09-05T13:00:15.304Z,1016.6
2022-09-05T13:05:27.967Z,1016.7
2022-09-05T13:06:31.824Z,1016.6
2022-09-05T13:07:37.871Z,1016.6
2022-09-05T13:08:40.742Z,1016.6
2022-09-05T13:14:51.744Z,1016.6
2022-09-05T13:16:36.116Z,1016.6
2022-09-05T13:17:44.957Z,1016.6
2022-09-05T13:18:48.107Z,1016.6
2022-09-05T13:19:51.962Z,1016.6
2022-09-05T13:20:55.744Z,1016.6
2022-09-05T13:21:58.553Z,1016.7
2022-09-05T13:23:01.699Z,1016.7
2022-09-05T13:24:04.770Z,1016.7
2022-09-05T13:25:07.377Z,1016.6
2022-09-05T13:26:10.460Z,1016.7
2022-09-05T13:27:13.707Z,1016.7
2022-09-05T13:28:16.710Z,1016.6
2022-09-05T13:29:18.982Z,1016.5
2022-09-05T13:38:27.330Z,1016.6
2022-09-05T13:39:58.436Z,1016.4
2022-09-05T13:41:02.333Z,1016.4
2022-09-05T13:42:05.553Z,1016.4
2022-09-05T13:43:08.434Z,1016.4
2022-09-05T13:44:28.307Z,1016.3
2022-09-05T13:45:32.313Z,1016.3
2022-09-05T13:46:41.478Z,1016.3
2022-09-05T13:47:44.175Z,1016.4
2022-09-05T13:49:26.346Z,1016.4
2022-09-05T13:50:35.532Z,1016.3
2022-09-05T13:51:38.404Z,1016.3
2022-09-05T13:52:41.822Z,1016.2
2022-09-05T13:53:44.404Z,1016.3
2022-09-05T13:54:51.941Z,1016.3
2022-09-05T13:56:03.802Z,1016.3
2022-09-05T13:57:06.630Z,1016.3
2022-09-05T13:58:09.503Z,1016.3
2022-09-05T13:59:11.544Z,1016.3
2022-09-05T14:00:28.803Z,1016.2
2022-09-05T14:01:31.945Z,1016.3
2022-09-05T14:03:28.573Z,1016.2
2022-09-05T14:05:19.308Z,1016.3
2022-09-05T14:06:48.599Z,1016.2
2022-09-05T14:07:52.516Z,1016.3
2022-09-05T14:09:41.329Z,1016.3
2022-09-05T14:10:44.407Z,1016.2
2022-09-05T14:11:46.924Z,1016.2
2022-09-05T14:12:52.778Z,1016.2
2022-09-05T14:14:11.654Z,1016.2
2022-09-05T14:15:15.224Z,1016.2
2022-09-05T14:16:17.198Z,1016.2
2022-09-05T14:17:50.995Z,1016.1
2022-09-05T14:18:56.521Z,1016.2
2022-09-05T14:19:59.298Z,1016.2
2022-09-05T14:21:10.530Z,1016.3
2022-09-05T14:22:22.929Z,1016.3
2022-09-05T14:23:26.250Z,1016.2
2022-09-05T14:24:29.244Z,1016.3
2022-09-05T14:25:32.111Z,1016.1
2022-09-05T14:26:35.310Z,1016.1
2022-09-05T14:27:38.999Z,1016.2
2022-09-05T14:28:47.050Z,1016.1
2022-09-05T14:29:50.810Z,1016.1
2022-09-05T14:37:58.146Z,1016.1
2022-09-05T14:39:31.065Z,1016
2022-09-05T14:40:34.495Z,1016
2022-09-05T14:41:37.403Z,1015.9
2022-09-05T14:43:12.100Z,1015.9
2022-09-05T14:44:16.149Z,1015.9
2022-09-05T14:45:19.109Z,1015.8
2022-09-05T14:46:22.255Z,1015.8
2022-09-05T14:47:36.352Z,1015.9
2022-09-05T14:48:40.102Z,1015.9
2022-09-05T14:49:55.375Z,1015.9
2022-09-05T14:51:00.212Z,1015.9
2022-09-05T14:52:03.354Z,1015.9
2022-09-05T14:55:23.550Z,1015.9
2022-09-05T15:02:55.773Z,1015.9
2022-09-05T15:04:44.534Z,1016
2022-09-05T15:05:47.425Z,1015.9
2022-09-05T15:06:50.126Z,1015.9
2022-09-05T15:07:58.742Z,1016
2022-09-05T15:12:38.530Z,1016
2022-09-05T15:14:03.987Z,1016
2022-09-05T15:15:06.804Z,1016
2022-09-05T15:16:09.377Z,1015.9
2022-09-05T15:17:14.555Z,1016
2022-09-05T15:18:21.955Z,1016
2022-09-05T15:19:25.466Z,1015.9
2022-09-05T15:20:28.414Z,1015.9
2022-09-05T15:21:35.570Z,1015.9
2022-09-05T15:22:38.935Z,1015.9
2022-09-05T15:23:46.555Z,1015.9
2022-09-05T15:24:56.798Z,1015.9
2022-09-05T15:26:26.859Z,1015.9
2022-09-05T15:27:29.759Z,1016
2022-09-05T15:28:32.903Z,1016
2022-09-05T15:29:35.493Z,1016
2022-09-05T15:30:37.813Z,1015.9
2022-09-05T15:31:41.096Z,1015.9
2022-09-05T15:32:49.801Z,1015.9
2022-09-05T15:33:53.933Z,1015.9
2022-09-05T15:34:57.379Z,1015.9
2022-09-05T15:36:00.522Z,1015.9
2022-09-05T15:37:22.021Z,1015.9
2022-09-05T15:38:26.379Z,1015.9
2022-09-05T15:39:29.900Z,1015.9
2022-09-05T15:40:33.351Z,1015.9
2022-09-05T15:41:43.851Z,1015.9
2022-09-05T15:42:47.288Z,1015.9
2022-09-05T15:43:50.698Z,1016
2022-09-05T15:45:10.653Z,1015.9
2022-09-05T15:46:14.256Z,1015.9
2022-09-05T15:47:17.019Z,1016
2022-09-05T15:48:20.051Z,1015.9
2022-09-05T15:49:24.019Z,1015.9
2022-09-05T15:50:26.903Z,1015.9
2022-09-05T15:51:30.062Z,1015.9
2022-09-05T15:52:35.186Z,1015.9
2022-09-05T15:53:38.254Z,1016
2022-09-05T15:54:41.404Z,1016
2022-09-05T15:56:01.451Z,1015.9
2022-09-05T15:57:07.264Z,1016
2022-09-05T15:58:09.775Z,1015.9
2022-09-05T15:59:12.561Z,1015.9
2022-09-05T16:00:16.073Z,1015.9
2022-09-05T16:02:00.868Z,1015.9
2022-09-05T16:10:24.289Z,1015.9
2022-09-05T16:13:53.927Z,1015.8
2022-09-05T16:21:35.644Z,1015.8
2022-09-05T16:25:00.785Z,1015.8
2022-09-05T16:26:04.023Z,1015.8
2022-09-05T16:27:07.022Z,1015.8
2022-09-05T16:28:09.618Z,1015.8
2022-09-05T16:29:11.777Z,1015.8
2022-09-05T16:30:16.351Z,1015.8
2022-09-05T16:31:19.631Z,1015.8
2022-09-05T16:32:23.222Z,1015.9
2022-09-05T16:33:26.224Z,1015.9
2022-09-05T16:34:30.013Z,1015.9
2022-09-05T16:35:32.812Z,1015.9
2022-09-05T16:36:38.168Z,1015.9
2022-09-05T16:38:11.564Z,1015.8
2022-09-05T16:39:14.293Z,1015.8
2022-09-05T16:40:17.359Z,1015.8
2022-09-05T16:41:24.791Z,1015.8
2022-09-05T16:42:47.683Z,1015.8
2022-09-05T16:43:51.067Z,1015.8
2022-09-05T16:44:53.203Z,1015.8
2022-09-05T16:45:56.159Z,1015.8
2022-09-05T16:46:59.329Z,1015.8
2022-09-05T16:48:02.255Z,1015.8
2022-09-05T16:49:12.620Z,1015.8
2022-09-05T16:50:17.245Z,1015.8
2022-09-05T16:51:37.547Z,1015.7
2022-09-05T16:52:54.325Z,1015.7
2022-09-05T16:54:00.116Z,1015.7
2022-09-05T16:55:02.903Z,1015.7
2022-09-05T16:56:05.632Z,1015.7
2022-09-05T16:57:08.227Z,1015.7
2022-09-05T16:58:14.910Z,1015.7
2022-09-05T16:59:18.618Z,1015.7
2022-09-05T17:00:21.766Z,1015.7
2022-09-05T17:01:24.907Z,1015.7
2022-09-05T17:02:28.285Z,1015.7
2022-09-05T17:03:31.685Z,1015.7
2022-09-05T17:04:34.663Z,1015.7
2022-09-05T17:05:38.355Z,1015.7
2022-09-05T17:06:45.932Z,1015.7
2022-09-05T17:07:48.765Z,1015.7
2022-09-05T17:09:03.251Z,1015.7
2022-09-05T17:10:17.261Z,1015.7
2022-09-05T17:11:31.937Z,1015.7
2022-09-05T17:13:04.004Z,1015.7
2022-09-05T17:14:07.147Z,1015.7
2022-09-05T17:15:09.841Z,1015.8
2022-09-05T17:16:12.899Z,1015.7
2022-09-05T17:18:24.455Z,1015.7
2022-09-05T17:20:06.620Z,1015.7
2022-09-05T17:21:11.249Z,1015.7
2022-09-05T17:29:22.923Z,1015.7
2022-09-05T17:33:05.830Z,1015.8
2022-09-05T17:34:08.899Z,1015.8
2022-09-05T17:35:18.665Z,1015.8
2022-09-05T17:36:20.858Z,1015.8
2022-09-05T17:37:43.770Z,1015.8
2022-09-05T17:38:48.559Z,1015.8
2022-09-05T17:39:51.875Z,1015.8
2022-09-05T17:40:55.337Z,1015.8
2022-09-05T17:41:58.147Z,1015.8
2022-09-05T17:43:00.944Z,1015.8
2022-09-05T17:44:04.166Z,1015.7
2022-09-05T17:45:06.758Z,1015.8
2022-09-05T17:46:10.028Z,1015.8
2022-09-05T17:47:15.616Z,1015.8
2022-09-05T17:48:18.771Z,1015.8
2022-09-05T17:49:22.224Z,1015.8
2022-09-05T17:50:33.685Z,1015.8
2022-09-05T17:51:36.765Z,1015.8
2022-09-05T17:52:39.190Z,1015.9
2022-09-05T17:53:42.010Z,1015.8
2022-09-05T17:54:50.771Z,1015.8
2022-09-05T17:55:54.325Z,1015.8
2022-09-05T17:56:57.882Z,1015.8
2022-09-05T17:58:00.721Z,1015.8
2022-09-05T17:59:03.602Z,1015.8
2022-09-05T18:00:12.947Z,1015.8
2022-09-05T18:01:16.228Z,1015.8
2022-09-05T18:02:19.895Z,1015.9
2022-09-05T18:03:23.586Z,1015.9
2022-09-05T18:04:26.453Z,1015.9
2022-09-05T18:05:29.241Z,1015.9